Huvudsida
METAR-TAF:

METAR-TAF

Flygplatser :

Sunan International Airport

Pyongyang, Nordkorea

latitud: 39-02N, longitud: 125-47E, höjd: 36 m

METAR: saknas

Tid: 16:14 (07:44 UTC)

Väderprognos

Denna rapport gjordes för 3 timmar och 44 minuter sedan, klockan 04:00 UTC
Prognos gäller från 15 kl. 06 UTC till 16 kl. 06 UTC
Vind 6 kt från syd/sydost
Sikt: 8000 m
Mulet på en höjd av 3000 ft
Temporärt
från 15 kl. 22 UTC till 16 kl. 02 UTC
Sikt: 6000 m
Mulet på en höjd av 2300 ft
lätt snö

TAF: ZKPY 150400Z 1506/1606 15003MPS 8000 OVC030 TX01/1506Z TNM03/1521Z TEMPO 1522/1602 6000 -SN OVC023

Aktuella väderrapporter och prognoser från 4000 flygplatser (METAR- och TAF-rapporter).

De tillgängliga stationerna syns som gula och röda prickar på kartan.

För musen över prickarna för att se namnen på stationerna.

Klicka sedan för att få väderrapporter och prognoser.

För att ändra kartan: Klicka på de gröna knapparna med ett svart kors på för att zooma in; den gröna knappen med ett streck på för att zooma ut; eller på de gröna pilarna för angränsande kartor.


METAR-TAF: